Time;durP1;ratioP1;P1;durP2;ratioP2;P2;SDS_P1;SDS_P2;PMS_P1;PMS_P2;Temp;Humidity;BMP_temperature;BMP_pressure;BME280_temperature;BME280_humidity;BME280_pressure;Samples;Min_cycle;Max_cycle;Signal;HPM_P1;HPM_P2
2021/10/09 00:01:38;;;;;;;;;12.33;12.33;;;;;19.28;52.22;102265.94;5057812;28;45449;-60
2021/10/09 00:04:03;;;;;;;;;16.00;11.67;;;;;19.27;51.91;102267.69;5057795;28;45353;-49
2021/10/09 00:06:29;;;;;;;;;14.67;13.33;;;;;19.27;52.28;102270.34;5057907;28;45232;-57
2021/10/09 00:08:54;;;;;;;;;15.00;13.33;;;;;19.28;52.12;102263.25;5058058;28;45379;-45
2021/10/09 00:11:21;;;;;;;;;15.00;13.00;;;;;19.28;52.27;102261.50;5057448;28;45987;-60
2021/10/09 00:13:47;;;;;;;;;12.00;12.00;;;;;19.29;52.08;102267.72;5057849;28;45356;-46
2021/10/09 00:16:14;;;;;;;;;15.00;13.33;;;;;19.28;52.03;102269.50;5057871;28;45398;-48
2021/10/09 00:18:39;;;;;;;;;13.67;12.00;;;;;19.27;52.14;102267.69;5058103;28;45379;-59
2021/10/09 00:21:05;;;;;;;;;12.00;12.00;;;;;19.28;52.28;102264.16;5057530;28;46260;-60
2021/10/09 00:23:30;;;;;;;;;12.33;11.00;;;;;19.27;52.21;102261.50;5057035;28;45457;-47
2021/10/09 00:25:57;;;;;;;;;20.00;14.00;;;;;19.27;52.31;102258.84;5057657;28;45694;-48
2021/10/09 00:28:22;;;;;;;;;16.33;13.00;;;;;19.27;52.24;102265.03;5057664;28;45204;-52
2021/10/09 00:30:48;;;;;;;;;13.67;13.67;;;;;19.28;52.11;102258.84;5057434;28;47001;-57
2021/10/09 00:33:13;;;;;;;;;15.67;14.00;;;;;19.27;52.08;102259.69;5057420;28;45412;-47
2021/10/09 00:35:38;;;;;;;;;12.67;12.67;;;;;19.26;52.33;102257.94;5057717;28;45231;-59
2021/10/09 00:38:04;;;;;;;;;12.67;12.33;;;;;19.27;52.29;102261.50;5057868;28;45295;-62
2021/10/09 00:40:29;;;;;;;;;15.67;12.33;;;;;19.25;52.26;102258.78;5057281;28;46037;-49
2021/10/09 00:42:55;;;;;;;;;12.67;11.33;;;;;19.26;52.16;102249.94;5057403;28;45346;-51
2021/10/09 00:45:20;;;;;;;;;11.33;11.33;;;;;19.27;52.12;102256.16;5057341;28;45232;-50
2021/10/09 00:47:46;;;;;;;;;13.00;11.33;;;;;19.26;52.16;102262.38;5057421;28;45263;-48
2021/10/09 00:50:11;;;;;;;;;14.67;13.33;;;;;19.26;52.34;102252.59;5057216;28;46760;-55
2021/10/09 00:52:38;;;;;;;;;13.67;11.33;;;;;19.26;52.45;102259.69;5057359;28;45406;-51
2021/10/09 00:55:05;;;;;;;;;12.67;12.33;;;;;19.27;52.10;102253.50;5057520;28;45353;-57
2021/10/09 00:57:34;;;;;;;;;13.33;11.67;;;;;19.26;51.98;102257.94;5057324;28;45482;-59
2021/10/09 01:00:01;;;;;;;;;13.67;11.00;;;;;19.26;52.15;102255.25;5057067;28;46247;-55
2021/10/09 01:02:27;;;;;;;;;13.67;12.00;;;;;19.26;52.18;102249.94;5057009;28;45342;-56
2021/10/09 01:04:55;;;;;;;;;10.33;10.33;;;;;19.26;52.30;102252.59;5058813;28;45322;-60
2021/10/09 01:07:21;;;;;;;;;12.33;11.33;;;;;19.27;52.37;102250.84;5061046;28;45451;-57
2021/10/09 01:09:46;;;;;;;;;13.33;12.33;;;;;19.26;52.16;102249.94;5060511;28;46940;-52
2021/10/09 01:12:14;;;;;;;;;12.00;11.67;;;;;19.27;52.06;102253.50;5060591;28;45169;-55
2021/10/09 01:14:40;;;;;;;;;12.67;11.00;;;;;19.27;52.22;102253.50;5060743;28;45228;-48
2021/10/09 01:17:08;;;;;;;;;16.00;12.33;;;;;19.27;52.08;102250.84;5060753;28;45331;-49
2021/10/09 01:19:33;;;;;;;;;14.67;12.33;;;;;19.26;51.88;102252.59;5060445;28;47350;-56
2021/10/09 01:21:58;;;;;;;;;13.67;11.67;;;;;19.27;52.25;102251.69;5060369;28;45313;-46
2021/10/09 01:24:24;;;;;;;;;12.33;10.00;;;;;19.27;52.23;102253.50;5060643;28;45321;-59
2021/10/09 01:26:49;;;;;;;;;15.00;11.67;;;;;19.26;52.25;102255.25;5060489;28;45474;-56
2021/10/09 01:29:15;;;;;;;;;13.67;13.33;;;;;19.27;52.05;102254.38;5060118;28;46346;-50
2021/10/09 01:31:41;;;;;;;;;12.67;11.67;;;;;19.26;52.28;102249.94;5060061;28;45444;-47
2021/10/09 01:34:07;;;;;;;;;15.33;14.00;;;;;19.27;52.22;102251.69;5060321;28;45245;-54
2021/10/09 01:36:35;;;;;;;;;9.00;9.00;;;;;19.26;52.25;102247.28;5060442;28;45390;-53
2021/10/09 01:39:03;;;;;;;;;12.00;11.00;;;;;19.26;52.17;102251.69;5060112;28;46063;-54
2021/10/09 01:41:28;;;;;;;;;10.67;9.33;;;;;19.26;52.09;102243.69;5059916;28;45631;-46
2021/10/09 01:43:54;;;;;;;;;11.67;11.67;;;;;19.26;52.05;102247.28;5060098;28;45325;-48
2021/10/09 01:46:20;;;;;;;;;9.00;7.00;;;;;19.27;52.07;102248.16;5060326;28;45455;-49
2021/10/09 01:48:45;;;;;;;;;14.33;13.33;;;;;19.26;52.07;102247.28;5059784;28;46160;-51
2021/10/09 01:51:11;;;;;;;;;11.00;10.33;;;;;19.27;51.84;102251.69;5060014;28;45243;-52
2021/10/09 01:53:40;;;;;;;;;16.67;13.00;;;;;19.26;51.91;102244.59;5058909;28;45211;-53
2021/10/09 01:56:07;;;;;;;;;10.67;10.67;;;;;19.26;51.83;102241.94;5059986;28;45335;-47
2021/10/09 01:58:33;;;;;;;;;14.00;12.00;;;;;19.26;51.85;102244.59;5059667;28;47233;-55
2021/10/09 02:00:59;;;;;;;;;15.33;12.33;;;;;19.26;52.14;102244.59;5059781;28;45315;-50
2021/10/09 02:03:24;;;;;;;;;10.67;10.33;;;;;19.26;51.89;102246.38;5059794;28;45296;-54
2021/10/09 02:05:50;;;;;;;;;14.00;10.67;;;;;19.26;51.97;102244.59;5060205;28;45415;-47
2021/10/09 02:08:15;;;;;;;;;13.33;12.33;;;;;19.26;52.18;102238.38;5059598;28;47290;-57
2021/10/09 02:13:20;;;;;;;;;14.33;13.67;;;;;19.25;51.74;102237.47;5059655;28;45295;-53
2021/10/09 02:15:51;;;;;;;;;14.33;13.00;;;;;19.26;51.76;102241.94;5059661;28;45386;-54
2021/10/09 02:26:09;;;;;;;;;13.00;12.25;;;;;19.24;51.93;102227.72;5059892;28;45369;-51
2021/10/09 02:28:35;;;;;;;;;12.33;9.67;;;;;19.25;51.90;102232.13;5059028;28;46150;-57
2021/10/09 02:31:00;;;;;;;;;15.33;12.67;;;;;19.25;51.82;102231.28;5059293;28;45271;-48
2021/10/09 02:33:25;;;;;;;;;11.00;11.00;;;;;19.24;51.76;102227.72;5059325;28;45291;-59
2021/10/09 02:35:51;;;;;;;;;13.67;13.67;;;;;19.24;51.74;102227.72;5059586;28;45453;-55
2021/10/09 02:38:17;;;;;;;;;11.33;10.00;;;;;19.24;51.78;102227.72;5059173;28;46362;-61
2021/10/09 02:40:44;;;;;;;;;15.33;13.33;;;;;19.24;51.90;102235.72;5059325;28;45308;-47
2021/10/09 02:43:10;;;;;;;;;11.00;11.00;;;;;19.24;51.69;102233.03;5059387;28;45430;-57
2021/10/09 02:45:35;;;;;;;;;14.33;11.33;;;;;19.24;51.85;102234.81;5059461;28;45451;-51
2021/10/09 02:48:03;;;;;;;;;13.67;11.67;;;;;19.24;51.68;102232.13;5058789;28;45972;-53
2021/10/09 02:50:29;;;;;;;;;13.33;12.00;;;;;19.25;51.70;102236.59;5058980;28;45356;-54
2021/10/09 02:52:55;;;;;;;;;14.33;11.33;;;;;19.24;51.56;102238.38;5059016;28;45243;-57
2021/10/09 02:55:21;;;;;;;;;13.67;13.67;;;;;19.24;51.63;102235.72;5059083;28;45266;-48
2021/10/09 02:57:48;;;;;;;;;16.67;13.67;;;;;19.24;51.63;102233.03;5058717;28;46047;-58
2021/10/09 03:00:14;;;;;;;;;11.67;10.33;;;;;19.24;51.45;102230.38;5059084;28;45215;-55
2021/10/09 03:02:40;;;;;;;;;13.33;10.33;;;;;19.25;51.36;102234.81;5058937;28;45268;-49
2021/10/09 03:05:07;;;;;;;;;15.00;15.00;;;;;19.24;51.47;102235.72;5059074;28;45474;-58
2021/10/09 03:07:32;;;;;;;;;17.67;12.67;;;;;19.25;51.68;102233.94;5058517;28;47161;-62
2021/10/09 03:09:58;;;;;;;;;12.67;10.67;;;;;19.24;51.44;102229.47;5058415;28;45398;-53
2021/10/09 03:12:24;;;;;;;;;12.67;11.67;;;;;19.25;51.69;102228.59;5058859;28;45271;-46
2021/10/09 03:14:49;;;;;;;;;13.67;12.33;;;;;19.24;51.58;102227.72;5059038;28;45330;-48
2021/10/09 03:17:15;;;;;;;;;13.67;13.67;;;;;19.24;51.77;102227.72;5058482;28;45989;-53
2021/10/09 03:19:40;;;;;;;;;14.00;13.33;;;;;19.25;51.42;102223.28;5058578;28;45319;-60
2021/10/09 03:22:06;;;;;;;;;13.33;12.00;;;;;19.25;51.36;102233.94;5058630;28;45265;-59
2021/10/09 03:24:32;;;;;;;;;15.67;14.00;;;;;19.23;51.36;102227.72;5058624;28;45529;-47
2021/10/09 03:26:57;;;;;;;;;13.67;12.33;;;;;19.23;51.40;102225.91;5057745;28;46983;-46
2021/10/09 03:29:23;;;;;;;;;15.33;14.00;;;;;19.24;51.19;102225.03;5058605;28;45251;-46
2021/10/09 03:31:48;;;;;;;;;14.67;13.67;;;;;19.24;51.33;102230.38;5058293;28;45664;-62
2021/10/09 03:34:13;;;;;;;;;14.33;13.33;;;;;19.24;51.20;102229.47;5058626;28;45335;-46
2021/10/09 03:36:39;;;;;;;;;12.67;12.33;;;;;19.23;51.20;102236.56;5058353;28;47075;-49
2021/10/09 03:39:08;;;;;;;;;13.33;12.33;;;;;19.24;51.30;102235.72;5058245;28;45358;-46
2021/10/09 03:41:36;;;;;;;;;14.67;13.33;;;;;19.24;51.27;102235.72;5058459;28;45294;-50
2021/10/09 03:44:01;;;;;;;;;13.33;13.00;;;;;19.23;51.17;102233.91;5058441;28;45203;-46
2021/10/09 03:46:28;;;;;;;;;14.33;13.00;;;;;19.23;51.01;102233.91;5057889;28;47244;-46
2021/10/09 03:54:03;;;;;;;;;16.00;14.67;;;;;19.24;51.20;102233.03;5058316;28;45215;-53
2021/10/09 03:56:29;;;;;;;;;14.33;14.00;;;;;19.23;50.91;102225.91;5057683;28;46114;-56
2021/10/09 03:58:54;;;;;;;;;16.00;13.33;;;;;19.23;50.93;102228.56;5058027;28;45245;-59
2021/10/09 04:01:19;;;;;;;;;15.67;15.67;;;;;19.24;50.89;102225.03;5058274;28;45431;-62
2021/10/09 04:03:45;;;;;;;;;18.33;15.33;;;;;19.24;50.91;102233.03;5058161;28;45459;-50
2021/10/09 04:06:10;;;;;;;;;12.67;12.67;;;;;19.24;50.95;102227.72;5057911;28;46956;-61
2021/10/09 04:08:35;;;;;;;;;15.67;15.67;;;;;19.24;50.59;102230.38;5057719;28;45304;-58
2021/10/09 04:11:01;;;;;;;;;21.00;15.67;;;;;19.24;50.91;102227.72;5057904;28;45371;-48
2021/10/09 04:13:26;;;;;;;;;17.67;15.33;;;;;19.24;50.81;102224.16;5058107;28;45537;-50
2021/10/09 04:15:52;;;;;;;;;18.00;16.00;;;;;19.24;50.67;102227.72;5057587;28;46183;-52
2021/10/09 04:18:17;;;;;;;;;18.67;15.33;;;;;19.24;50.79;102230.38;5057793;28;45413;-52
2021/10/09 04:20:42;;;;;;;;;17.67;16.00;;;;;19.24;50.52;102224.16;5057955;28;45352;-53
2021/10/09 04:23:08;;;;;;;;;18.00;18.00;;;;;19.23;50.58;102228.56;5057769;28;45319;-56
2021/10/09 04:25:33;;;;;;;;;18.00;17.67;;;;;19.24;50.64;102229.47;5057583;28;47078;-46
2021/10/09 04:27:59;;;;;;;;;18.67;15.33;;;;;19.25;50.56;102223.28;5057664;28;45323;-46
2021/10/09 04:30:24;;;;;;;;;18.33;15.33;;;;;19.24;50.56;102227.72;5057633;28;45249;-57
2021/10/09 04:32:50;;;;;;;;;21.67;17.00;;;;;19.24;50.59;102229.47;5057413;28;45456;-61
2021/10/09 04:35:16;;;;;;;;;21.67;18.33;;;;;19.23;50.26;102225.91;5057224;28;47038;-54
2021/10/09 04:37:42;;;;;;;;;17.67;17.67;;;;;19.24;50.35;102229.47;5057546;28;45153;-56
2021/10/09 04:40:08;;;;;;;;;17.00;16.00;;;;;19.24;50.49;102226.81;5059338;28;45370;-48
2021/10/09 04:42:34;;;;;;;;;16.67;16.67;;;;;19.24;50.51;102218.81;5061401;28;45464;-48
2021/10/09 04:44:59;;;;;;;;;15.33;13.33;;;;;19.23;50.42;102215.25;5060750;28;46045;-50
2021/10/09 04:47:24;;;;;;;;;22.67;19.33;;;;;19.24;50.44;102210.81;5060965;28;45296;-53
2021/10/09 04:49:50;;;;;;;;;19.33;16.33;;;;;19.23;50.35;102217.91;5061015;28;45303;-61
2021/10/09 04:52:15;;;;;;;;;20.00;17.33;;;;;19.23;50.26;102217.03;5061198;28;45454;-46
2021/10/09 04:54:40;;;;;;;;;17.00;17.00;;;;;19.23;50.37;102215.25;5060677;28;46957;-58
2021/10/09 04:57:06;;;;;;;;;19.00;17.67;;;;;19.23;50.46;102217.03;5060895;28;45303;-54
2021/10/09 04:59:31;;;;;;;;;18.33;17.67;;;;;19.23;50.20;102217.91;5060735;28;45436;-52
2021/10/09 05:01:56;;;;;;;;;20.00;17.33;;;;;19.23;50.18;102212.56;5060911;28;45302;-47
2021/10/09 05:04:22;;;;;;;;;22.33;20.33;;;;;19.23;50.11;102207.25;5060570;28;46248;-49
2021/10/09 05:06:47;;;;;;;;;23.00;20.00;;;;;19.23;50.19;102212.56;5060628;28;45295;-52
2021/10/09 05:09:12;;;;;;;;;23.67;20.67;;;;;19.22;50.04;102216.16;5060777;28;45332;-47
2021/10/09 05:11:38;;;;;;;;;22.00;19.33;;;;;19.22;50.26;102210.81;5060625;28;45246;-46
2021/10/09 05:14:03;;;;;;;;;21.33;17.33;;;;;19.22;50.26;102213.47;5060602;28;46094;-60
2021/10/09 05:16:29;;;;;;;;;16.67;15.67;;;;;19.23;50.21;102217.03;5060624;28;45315;-54
2021/10/09 05:18:54;;;;;;;;;23.33;20.67;;;;;19.23;49.95;102212.56;5060804;28;45420;-59
2021/10/09 05:21:20;;;;;;;;;21.00;19.33;;;;;19.22;50.00;102210.81;5060716;28;45169;-51
2021/10/09 05:23:45;;;;;;;;;20.33;18.33;;;;;19.21;49.79;102209.91;5060168;28;46451;-58
2021/10/09 05:26:10;;;;;;;;;27.00;24.00;;;;;19.22;49.87;102210.81;5060175;28;45702;-55
2021/10/09 05:28:55;;;;;;;;;23.33;19.67;;;;;19.22;49.81;102218.81;5060448;28;45187;-51
2021/10/09 05:33:50;;;;;;;;;23.33;21.00;;;;;19.20;49.93;102213.47;5058989;28;45499;-62
2021/10/09 05:36:15;;;;;;;;;21.00;18.67;;;;;19.21;49.75;102219.69;5059063;28;45340;-52
2021/10/09 05:38:41;;;;;;;;;19.67;19.67;;;;;19.21;49.81;102219.69;5059055;28;45314;-47
2021/10/09 05:41:06;;;;;;;;;20.33;18.67;;;;;19.21;49.58;102217.00;5059115;28;45532;-47
2021/10/09 05:43:32;;;;;;;;;21.00;19.00;;;;;19.20;49.82;102221.47;5059022;28;47063;-59
2021/10/09 05:45:58;;;;;;;;;23.00;21.00;;;;;19.20;49.64;102221.47;5058999;28;45310;-48
2021/10/09 05:48:24;;;;;;;;;24.00;19.33;;;;;19.21;49.77;102233.91;5059088;28;45434;-45
2021/10/09 05:56:36;;;;;;;;;21.67;20.67;;;;;19.21;49.57;102230.34;5036270;28;45534;-46
2021/10/09 06:37:25;;;;;;;;;24.00;21.75;;;;;19.17;49.75;102271.19;4959056;28;1151583;-62
2021/10/09 06:43:08;;;;;;;;;24.33;22.67;;;;;19.17;49.42;102273.84;5059313;28;45414;-49
2021/10/09 07:01:49;;;;;;;;;22.33;21.00;;;;;19.15;49.05;102295.19;5035364;28;45338;-51
2021/10/09 07:04:15;;;;;;;;;19.67;19.67;;;;;19.15;49.16;102304.94;5036095;28;45249;-47
2021/10/09 07:06:41;;;;;;;;;18.00;18.00;;;;;19.16;49.29;102296.09;5036806;28;45451;-49
2021/10/09 07:09:07;;;;;;;;;24.67;20.67;;;;;19.16;49.28;102306.75;5036173;28;46095;-49
2021/10/09 07:11:32;;;;;;;;;26.33;24.00;;;;;19.16;49.20;102306.75;5036043;28;45313;-46
2021/10/09 07:13:58;;;;;;;;;24.00;22.67;;;;;19.16;49.20;102314.75;5036553;28;45268;-61
2021/10/09 07:16:23;;;;;;;;;25.67;24.33;;;;;19.16;49.18;102312.06;5036773;28;45277;-49
2021/10/09 07:18:48;;;;;;;;;23.67;19.67;;;;;19.15;49.28;102313.84;5036238;28;47958;-49
2021/10/09 07:21:14;;;;;;;;;24.33;23.00;;;;;19.15;49.05;102313.84;5036349;28;45421;-58
2021/10/09 07:23:39;;;;;;;;;23.67;21.33;;;;;19.14;49.13;102314.66;5035825;28;45188;-50
2021/10/09 07:26:07;;;;;;;;;25.67;22.33;;;;;19.14;49.16;102320.00;5036255;28;45548;-49
2021/10/09 07:28:32;;;;;;;;;24.67;21.67;;;;;19.16;49.28;102325.41;5040641;28;46266;-49
2021/10/09 07:30:58;;;;;;;;;25.33;21.67;;;;;19.15;49.25;102320.94;5058407;28;45275;-48
2021/10/09 07:33:23;;;;;;;;;27.33;23.33;;;;;19.14;49.23;102324.47;5058393;28;45260;-53
2021/10/09 07:35:48;;;;;;;;;21.00;19.67;;;;;19.14;49.13;102322.66;5058567;28;45360;-48
2021/10/09 07:38:14;;;;;;;;;25.00;21.67;;;;;19.14;49.07;102330.66;5058187;28;47031;-50
2021/10/09 07:40:39;;;;;;;;;22.67;19.67;;;;;19.13;49.48;102326.22;5058174;28;45480;-50
2021/10/09 07:43:05;;;;;;;;;22.00;21.00;;;;;19.14;49.42;102327.13;5058331;28;45303;-48
2021/10/09 07:45:30;;;;;;;;;23.00;20.00;;;;;19.14;49.31;102330.66;5058343;28;45247;-53
2021/10/09 07:47:56;;;;;;;;;22.00;20.00;;;;;19.13;49.09;102336.91;5057973;28;46812;-47
2021/10/09 07:50:21;;;;;;;;;24.33;23.00;;;;;19.13;49.09;102336.91;5058126;28;45416;-48
2021/10/09 07:52:46;;;;;;;;;29.00;21.00;;;;;19.13;49.23;102344.00;5058335;28;45379;-51
2021/10/09 07:55:12;;;;;;;;;26.00;22.00;;;;;19.13;48.94;102333.31;5058274;28;45482;-47
2021/10/09 07:57:37;;;;;;;;;28.00;26.33;;;;;19.13;49.26;102344.88;5057895;28;46150;-47
2021/10/09 08:00:04;;;;;;;;;27.33;26.67;;;;;19.13;49.06;102336.91;5057863;28;45332;-48
2021/10/09 08:02:32;;;;;;;;;24.67;24.00;;;;;19.13;49.38;102342.22;5058021;28;45275;-52
2021/10/09 08:04:57;;;;;;;;;27.00;24.33;;;;;19.13;49.12;102349.31;5058000;28;45286;-46
2021/10/09 08:07:22;;;;;;;;;26.67;24.00;;;;;19.12;48.97;102347.56;5057576;28;46233;-58
2021/10/09 08:09:48;;;;;;;;;27.00;23.33;;;;;19.12;49.05;102355.56;5057807;28;45344;-46
2021/10/09 08:12:13;;;;;;;;;27.33;23.67;;;;;19.12;49.13;102352.88;5057762;28;45639;-46
2021/10/09 08:14:39;;;;;;;;;26.25;23.25;;;;;19.11;49.33;102351.97;5057916;28;45320;-48
2021/10/09 08:17:04;;;;;;;;;24.67;22.33;;;;;19.12;49.42;102355.56;5057740;28;47223;-48
2021/10/09 08:19:31;;;;;;;;;23.33;23.33;;;;;19.10;49.36;102353.75;5057623;28;45353;-49
2021/10/09 08:22:00;;;;;;;;;28.50;22.50;;;;;19.11;49.20;102351.97;5057809;28;45192;-47
2021/10/09 08:27:43;;;;;;;;;27.00;23.00;;;;;19.09;49.25;102354.66;5034926;28;46411;-59
2021/10/09 08:40:41;;;;;;;;;27.00;24.00;;;;;19.08;49.56;102346.63;5035083;28;45327;-50
2021/10/09 08:43:06;;;;;;;;;28.00;23.00;;;;;19.07;49.53;102345.75;5035228;28;45387;-50
2021/10/09 08:45:32;;;;;;;;;23.67;22.67;;;;;19.08;49.32;102343.94;5035261;28;45534;-47
2021/10/09 08:47:57;;;;;;;;;24.00;23.00;;;;;19.06;49.44;102341.28;5034871;28;45281;-48
2021/10/09 08:50:23;;;;;;;;;24.00;22.33;;;;;19.07;49.54;102340.41;5035001;28;45477;-56
2021/10/09 08:53:09;;;;;;;;;25.00;21.67;;;;;19.06;49.54;102343.03;5035181;28;45386;-59
2021/10/09 08:55:37;;;;;;;;;24.33;22.67;;;;;19.06;49.31;102343.94;5035167;28;45361;-48
2021/10/09 08:58:07;;;;;;;;;26.67;24.00;;;;;19.05;49.40;102341.28;5034324;28;45391;-49
2021/10/09 09:03:19;;;;;;;;;24.33;22.00;;;;;19.06;49.30;102341.28;5036466;28;45375;-54
2021/10/09 09:35:45;;;;;;;;;33.75;30.00;;;;;19.03;49.83;102338.59;5060059;28;45176;-55
2021/10/09 09:41:12;;;;;;;;;35.00;29.75;;;;;19.04;49.47;102334.16;5059789;28;45923;-47
2021/10/09 09:43:39;;;;;;;;;27.00;25.67;;;;;19.02;49.67;102328.81;5059745;28;45290;-52
2021/10/09 09:46:13;;;;;;;;;30.75;28.50;;;;;19.04;49.43;102337.72;5060162;28;45340;-59
2021/10/09 09:48:41;;;;;;;;;27.67;27.33;;;;;19.04;49.80;102334.16;5059846;28;45351;-56
2021/10/09 09:51:12;;;;;;;;;34.25;29.75;;;;;19.05;49.56;102330.63;5059762;28;47188;-58
2021/10/09 09:53:39;;;;;;;;;29.67;28.00;;;;;19.03;49.58;102319.97;5059592;28;45334;-49
2021/10/09 09:56:07;;;;;;;;;27.00;24.67;;;;;19.04;49.54;102319.06;5060042;28;45243;-56
2021/10/09 09:58:37;;;;;;;;;27.00;24.00;;;;;19.03;49.63;102311.97;5059914;28;45223;-52
2021/10/09 10:01:05;;;;;;;;;27.75;25.75;;;;;19.03;49.59;102309.28;5059600;28;46088;-54
2021/10/09 10:03:32;;;;;;;;;34.50;29.75;;;;;19.03;49.41;102309.28;5059719;28;45370;-51
2021/10/09 10:05:58;;;;;;;;;31.67;30.33;;;;;19.04;49.63;102307.50;5059752;28;45378;-55
2021/10/09 10:08:25;;;;;;;;;29.75;26.25;;;;;19.04;49.55;102308.41;5059897;28;45405;-49
2021/10/09 10:10:53;;;;;;;;;28.67;26.33;;;;;19.04;49.54;102311.06;5059530;28;47199;-46
2021/10/09 10:13:22;;;;;;;;;24.67;23.67;;;;;19.04;49.67;102303.06;5059464;28;45351;-52
2021/10/09 10:15:50;;;;;;;;;29.00;25.75;;;;;19.04;49.69;102305.72;5059699;28;45233;-51
2021/10/09 10:18:44;;;;;;;;;36.75;25.75;;;;;19.04;49.39;102300.41;5059622;28;45487;-51
2021/10/09 10:21:11;;;;;;;;;31.67;27.67;;;;;19.04;49.40;102305.72;5059321;28;47198;-48
2021/10/09 10:23:41;;;;;;;;;33.00;30.25;;;;;19.03;49.41;102301.28;5059299;28;45422;-49
2021/10/09 10:26:31;;;;;;;;;31.75;29.50;;;;;19.03;49.63;102298.63;5059352;28;45385;-50
2021/10/09 10:28:56;;;;;;;;;31.00;29.00;;;;;19.04;49.56;102307.50;5059307;28;45464;-46
2021/10/09 10:31:26;;;;;;;;;26.00;25.00;;;;;19.02;49.73;102299.50;5059335;28;45354;-52
2021/10/09 10:34:01;;;;;;;;;29.00;27.25;;;;;19.01;49.71;102300.41;5059044;28;45553;-55
2021/10/09 10:36:38;;;;;;;;;28.25;24.50;;;;;19.02;49.78;102298.59;5058493;28;45219;-58
2021/10/09 10:39:05;;;;;;;;;28.75;27.25;;;;;19.02;49.64;102301.25;5059285;28;45343;-50
2021/10/09 10:41:52;;;;;;;;;29.33;29.33;;;;;19.02;49.62;102304.81;5059030;28;46913;-55
2021/10/09 10:44:43;;;;;;;;;26.00;25.00;;;;;19.02;49.80;102301.25;5059224;28;45276;-57
2021/10/09 10:47:37;;;;;;;;;31.50;28.25;;;;;19.01;49.73;102303.06;5058967;28;45488;-62
2021/10/09 10:50:11;;;;;;;;;28.50;24.00;;;;;19.01;49.83;102300.41;5059280;28;45470;-49
2021/10/09 10:52:52;;;;;;;;;31.75;28.00;;;;;19.01;49.60;102295.06;5058786;28;47130;-50
2021/10/09 10:55:18;;;;;;;;;25.33;23.67;;;;;19.01;49.80;102292.41;5058855;28;45405;-59
2021/10/09 10:58:17;;;;;;;;;27.67;24.67;;;;;19.01;49.62;102292.41;5059010;28;45351;-52
2021/10/09 11:00:42;;;;;;;;;24.33;23.33;;;;;19.02;49.71;102287.94;5059197;28;45355;-62
2021/10/09 11:03:11;;;;;;;;;29.75;27.75;;;;;19.01;49.65;102292.41;5058582;28;46132;-49
2021/10/09 11:05:38;;;;;;;;;30.67;27.67;;;;;19.01;49.53;102286.16;5058779;28;45302;-46
2021/10/09 11:08:06;;;;;;;;;35.33;29.00;;;;;19.01;49.73;102289.72;5058605;28;45371;-54
2021/10/09 11:10:31;;;;;;;;;27.00;23.00;;;;;19.00;49.50;102287.03;5058759;28;45185;-55
2021/10/09 11:12:58;;;;;;;;;28.67;23.33;;;;;19.00;49.67;102290.59;5058553;28;46238;-54
2021/10/09 11:15:28;;;;;;;;;28.00;25.33;;;;;19.01;49.78;102284.41;5058620;28;45243;-57
2021/10/09 11:18:00;;;;;;;;;26.00;21.00;;;;;19.01;49.66;102288.84;5058746;28;45346;-47
2021/10/09 11:20:33;;;;;;;;;23.33;22.00;;;;;19.01;49.77;102286.16;5058675;28;45505;-47
2021/10/09 11:23:03;;;;;;;;;29.67;27.67;;;;;19.01;49.51;102288.84;5058198;28;46222;-48
2021/10/09 11:25:42;;;;;;;;;28.33;24.00;;;;;19.01;49.67;102283.50;5058483;28;45309;-53
2021/10/09 11:28:22;;;;;;;;;29.00;25.00;;;;;19.00;49.50;102279.94;5058517;28;45240;-49
2021/10/09 11:30:47;;;;;;;;;27.50;25.25;;;;;19.00;49.50;102285.28;5058427;28;45405;-48
2021/10/09 11:33:13;;;;;;;;;31.33;27.33;;;;;19.01;49.61;102275.50;5057983;28;46262;-59
2021/10/09 11:35:41;;;;;;;;;30.00;22.67;;;;;19.00;49.58;102277.28;5058065;28;45413;-57
2021/10/09 11:38:31;;;;;;;;;27.00;24.33;;;;;19.01;49.67;102279.06;5058517;28;45141;-54
2021/10/09 11:44:24;;;;;;;;;30.00;29.00;;;;;19.01;49.46;102280.84;5058143;28;46116;-49
2021/10/09 11:55:20;;;;;;;;;25.33;24.00;;;;;19.01;49.36;102268.41;5057807;28;45319;-50
2021/10/09 11:57:47;;;;;;;;;23.67;22.67;;;;;19.02;49.29;102263.94;5057888;28;45349;-48
2021/10/09 12:00:27;;;;;;;;;28.67;22.67;;;;;19.01;49.49;102260.41;5057991;28;45357;-49
2021/10/09 12:03:13;;;;;;;;;28.67;26.33;;;;;19.02;49.23;102270.19;5057981;28;45556;-46
2021/10/09 12:06:07;;;;;;;;;28.00;21.67;;;;;19.04;49.35;102267.53;5035396;28;46014;-53
2021/10/09 12:08:40;;;;;;;;;30.33;25.67;;;;;19.04;49.14;102268.41;4937256;28;45291;-57
2021/10/09 12:11:11;;;;;;;;;24.67;23.67;;;;;19.04;49.23;102260.44;4937319;28;45251;-50
2021/10/09 12:13:58;;;;;;;;;25.75;25.50;;;;;19.04;49.27;102257.75;4937406;28;45344;-49
2021/10/09 12:16:24;;;;;;;;;27.00;23.00;;;;;19.05;49.06;102259.56;4937278;28;46211;-59
2021/10/09 12:18:54;;;;;;;;;27.75;24.75;;;;;19.05;49.16;102250.66;4936953;28;45618;-49
2021/10/09 12:21:25;;;;;;;;;26.50;23.75;;;;;19.04;49.00;102249.75;4937502;28;45370;-55
2021/10/09 12:23:51;;;;;;;;;32.00;26.00;;;;;19.05;49.44;102245.34;4937192;28;45574;-47
2021/10/09 12:26:18;;;;;;;;;31.25;24.75;;;;;19.05;49.38;102254.22;4936977;28;46427;-48
2021/10/09 12:29:04;;;;;;;;;30.00;24.00;;;;;19.05;49.25;102250.66;4936844;28;45382;-51
2021/10/09 12:31:31;;;;;;;;;26.25;22.75;;;;;19.05;49.44;102242.66;4936891;28;45356;-55
2021/10/09 12:33:56;;;;;;;;;28.00;23.33;;;;;19.05;49.07;102237.34;4937125;28;45367;-55
2021/10/09 12:38:55;;;;;;;;;27.00;23.00;;;;;19.05;49.29;102229.34;4937023;28;45508;-49
2021/10/09 12:41:21;;;;;;;;;27.00;27.00;;;;;19.04;49.01;102228.44;4937119;28;45706;-56
2021/10/09 12:43:47;;;;;;;;;25.33;22.33;;;;;19.05;49.33;102226.69;4973107;28;45599;-54
2021/10/09 12:46:14;;;;;;;;;24.33;21.67;;;;;19.04;49.09;102230.22;5039358;28;46529;-61
2021/10/09 12:48:39;;;;;;;;;23.67;21.33;;;;;19.04;49.26;102238.22;5057148;28;45279;-54
2021/10/09 12:51:05;;;;;;;;;24.00;22.00;;;;;19.04;49.22;102227.53;5057525;28;45367;-51
2021/10/09 12:53:30;;;;;;;;;22.00;19.33;;;;;19.03;49.17;102226.69;5057325;28;45389;-51
2021/10/09 12:55:55;;;;;;;;;22.00;21.67;;;;;19.02;48.91;102219.53;5057147;28;46032;-57
2021/10/09 12:58:21;;;;;;;;;25.33;21.67;;;;;19.02;49.07;102213.31;5057324;28;45181;-52
2021/10/09 13:00:46;;;;;;;;;20.33;17.33;;;;;19.03;49.09;102221.34;5058757;28;45346;-57
2021/10/09 13:03:12;;;;;;;;;24.00;21.67;;;;;19.02;48.79;102219.53;5061109;28;45430;-48
2021/10/09 13:05:37;;;;;;;;;21.33;19.33;;;;;19.02;48.84;102214.22;5060607;28;45346;-49
2021/10/09 13:08:05;;;;;;;;;23.33;20.33;;;;;19.01;48.97;102214.22;5060543;28;45271;-46
2021/10/09 13:10:34;;;;;;;;;24.33;22.00;;;;;19.01;48.62;102212.44;5060789;28;45288;-46
2021/10/09 13:12:59;;;;;;;;;23.67;21.00;;;;;19.02;48.60;102205.31;5060779;28;45414;-46
2021/10/09 13:15:25;;;;;;;;;22.33;21.67;;;;;19.01;48.77;102209.78;5060549;28;46337;-50
2021/10/09 13:17:51;;;;;;;;;23.00;21.67;;;;;19.03;48.80;102210.69;5060326;28;45371;-55
2021/10/09 13:20:18;;;;;;;;;23.00;21.00;;;;;19.02;48.49;102210.66;5060529;28;45188;-49
2021/10/09 13:22:44;;;;;;;;;21.67;20.67;;;;;19.02;48.86;102206.22;5060607;28;45359;-54
2021/10/09 13:25:09;;;;;;;;;25.33;22.33;;;;;19.03;48.58;102205.34;5059871;28;45246;-55
2021/10/09 13:27:35;;;;;;;;;23.33;18.67;;;;;19.02;48.69;102203.56;5059717;28;45193;-60
2021/10/09 13:30:01;;;;;;;;;26.00;22.67;;;;;19.02;48.73;102208.88;5060505;28;45402;-50
2021/10/09 13:32:26;;;;;;;;;28.00;25.33;;;;;19.02;48.51;102206.22;5060338;28;45260;-48
2021/10/09 13:34:51;;;;;;;;;24.00;23.00;;;;;19.02;48.75;102206.22;5059596;28;45550;-57
2021/10/09 13:37:21;;;;;;;;;18.33;17.00;;;;;19.03;48.48;102205.34;5060250;28;45421;-59